Time;durP1;ratioP1;P1;durP2;ratioP2;P2;SDS_P1;SDS_P2;PMS_P1;PMS_P2;Temp;Humidity;BMP_temperature;BMP_pressure;BME280_temperature;BME280_humidity;BME280_pressure;Samples;Min_cycle;Max_cycle;Signal;HPM_P1;HPM_P2
2022/08/23 00:01:25;;;;;;;3.75;2.17;;;22.40;84.90;;;;;;5061338;28;20049;-78
2022/08/23 00:03:52;;;;;;;3.42;2.40;;;22.50;85.20;;;;;;5083603;28;20115;-77
2022/08/23 00:06:17;;;;;;;6.15;2.20;;;22.50;85.20;;;;;;5068078;28;20023;-78
2022/08/23 00:08:44;;;;;;;2.80;2.00;;;22.50;85.20;;;;;;5071838;28;20028;-79
2022/08/23 00:11:47;;;;;;;3.72;2.20;;;22.50;85.10;;;;;;5085879;28;20058;-78
2022/08/23 00:14:19;;;;;;;3.47;2.10;;;22.50;85.10;;;;;;5037311;28;20033;-78
2022/08/23 00:16:45;;;;;;;3.75;2.20;;;22.50;85.10;;;;;;5060017;28;20124;-78
2022/08/23 00:19:12;;;;;;;3.00;2.10;;;22.50;85.60;;;;;;5062350;28;20028;-78
2022/08/23 00:21:39;;;;;;;4.10;2.17;;;22.50;85.10;;;;;;5071922;28;20055;-78
2022/08/23 00:24:06;;;;;;;3.13;2.20;;;22.50;85.20;;;;;;5063657;28;20029;-78
2022/08/23 00:26:55;;;;;;;3.40;2.33;;;22.40;85.10;;;;;;5061576;28;20100;-78
2022/08/23 00:29:24;;;;;;;2.70;1.90;;;22.40;85.20;;;;;;5064326;28;20111;-78
2022/08/23 00:31:50;;;;;;;3.30;2.20;;;22.40;85.80;;;;;;5055157;28;20029;-78
2022/08/23 00:34:16;;;;;;;3.25;2.00;;;22.40;85.10;;;;;;5063397;28;20024;-78
2022/08/23 00:36:42;;;;;;;3.80;2.30;;;22.40;85.20;;;;;;5068855;28;20032;-78
2022/08/23 00:39:07;;;;;;;3.40;2.20;;;22.40;84.90;;;;;;5069106;28;20388;-78
2022/08/23 00:41:33;;;;;;;3.38;2.05;;;22.40;85.20;;;;;;5066687;28;20021;-78
2022/08/23 00:49:32;;;;;;;3.13;2.10;;;22.40;85.10;;;;;;5067535;28;20024;-78
2022/08/23 00:52:06;;;;;;;3.15;2.10;;;22.40;85.40;;;;;;5068239;28;20084;-78
2022/08/23 00:54:33;;;;;;;3.45;2.30;;;22.50;85.40;;;;;;5060100;28;20029;-78
2022/08/23 00:57:04;;;;;;;3.80;2.13;;;22.50;85.30;;;;;;5064059;28;20021;-78
2022/08/23 00:59:30;;;;;;;3.40;2.17;;;22.50;85.20;;;;;;5067437;28;20042;-78
2022/08/23 01:01:56;;;;;;;2.92;1.90;;;22.50;85.10;;;;;;5065444;28;20296;-77
2022/08/23 01:04:23;;;;;;;4.20;2.40;;;22.50;85.20;;;;;;5066704;28;20036;-77
2022/08/23 01:07:04;;;;;;;3.97;2.10;;;22.40;85.20;;;;;;5068471;28;20029;-78
2022/08/23 01:09:30;;;;;;;4.22;2.40;;;22.50;84.80;;;;;;5068769;28;20115;-77
2022/08/23 01:12:06;;;;;;;3.72;2.35;;;22.50;85.20;;;;;;5070021;28;20115;-77
2022/08/23 01:14:46;;;;;;;3.72;2.25;;;22.40;85.20;;;;;;5068261;28;20021;-78
2022/08/23 01:17:18;;;;;;;3.67;2.15;;;22.40;85.10;;;;;;5070059;28;20024;-78
2022/08/23 01:19:51;;;;;;;2.80;2.10;;;22.40;84.70;;;;;;5067392;28;20021;-78
2022/08/23 01:22:40;;;;;;;4.20;2.35;;;22.40;84.90;;;;;;5065029;28;20112;-78
2022/08/23 01:25:08;;;;;;;5.30;2.22;;;22.40;85.10;;;;;;5051822;28;20119;-77
2022/08/23 01:27:35;;;;;;;3.28;2.25;;;22.40;84.90;;;;;;5058117;28;20289;-77
2022/08/23 01:30:01;;;;;;;2.72;1.92;;;22.40;84.90;;;;;;5064622;28;20025;-77
2022/08/23 01:32:28;;;;;;;3.85;2.28;;;22.40;84.90;;;;;;5061798;28;20119;-78
2022/08/23 01:34:54;;;;;;;3.20;2.10;;;22.40;84.90;;;;;;5062975;28;20104;-78
2022/08/23 01:37:20;;;;;;;3.55;2.25;;;22.40;85.10;;;;;;5073160;28;20136;-78
2022/08/23 01:39:46;;;;;;;4.72;2.33;;;22.40;85.30;;;;;;5068812;28;20488;-78
2022/08/23 01:42:11;;;;;;;3.65;2.30;;;22.40;85.20;;;;;;5069687;28;20059;-76
2022/08/23 01:44:37;;;;;;;3.63;2.10;;;22.40;85.10;;;;;;5071105;28;20060;-78
2022/08/23 01:47:03;;;;;;;2.88;1.95;;;22.50;85.10;;;;;;5073071;28;20021;-78
2022/08/23 01:49:28;;;;;;;3.63;2.40;;;22.50;85.10;;;;;;5061878;28;20020;-78
2022/08/23 01:51:54;;;;;;;4.30;2.08;;;22.50;85.20;;;;;;5058530;28;20043;-77
2022/08/23 01:54:20;;;;;;;3.08;2.10;;;22.40;84.90;;;;;;5088851;28;20025;-77
2022/08/23 01:56:45;;;;;;;3.45;2.10;;;22.40;85.00;;;;;;5071938;28;20511;-77
2022/08/23 01:59:12;;;;;;;3.28;2.20;;;22.40;85.20;;;;;;5067377;28;20107;-77
2022/08/23 02:01:38;;;;;;;4.05;2.35;;;22.40;85.20;;;;;;5067287;28;20051;-78
2022/08/23 02:04:04;;;;;;;2.47;2.00;;;22.40;85.30;;;;;;5072371;28;20445;-77
2022/08/23 02:06:30;;;;;;;2.97;2.20;;;22.40;85.30;;;;;;5071076;28;20783;-78
2022/08/23 02:09:01;;;;;;;3.42;2.28;;;22.40;85.10;;;;;;5065595;28;20025;-77
2022/08/23 02:11:30;;;;;;;4.57;2.25;;;22.40;85.10;;;;;;5072038;28;20070;-78
2022/08/23 02:13:58;;;;;;;4.72;2.45;;;22.30;85.10;;;;;;5064263;28;20033;-78
2022/08/23 02:16:46;;;;;;;3.60;2.10;;;22.40;84.90;;;;;;5068257;28;20031;-77
2022/08/23 02:19:13;;;;;;;2.83;2.00;;;22.40;85.30;;;;;;5066526;28;20020;-78
2022/08/23 02:21:41;;;;;;;3.25;2.25;;;22.40;85.20;;;;;;5064905;28;20098;-78
2022/08/23 02:24:16;;;;;;;3.08;1.90;;;22.40;85.30;;;;;;5066949;28;20020;-78
2022/08/23 02:26:47;;;;;;;3.47;2.15;;;22.40;85.40;;;;;;5057329;28;20074;-78
2022/08/23 02:29:14;;;;;;;3.55;2.10;;;22.40;85.30;;;;;;5072611;28;20021;-78
2022/08/23 02:31:40;;;;;;;3.80;2.33;;;22.40;85.20;;;;;;5059390;28;20396;-78
2022/08/23 02:34:05;;;;;;;3.50;2.38;;;22.40;85.20;;;;;;5069894;28;20147;-77
2022/08/23 02:36:31;;;;;;;3.17;2.20;;;22.40;85.20;;;;;;5072318;28;20019;-78
2022/08/23 02:38:57;;;;;;;3.47;2.25;;;22.40;85.20;;;;;;5071773;28;20028;-78
2022/08/23 02:41:23;;;;;;;3.10;2.00;;;22.40;85.30;;;;;;5061686;28;20025;-78
2022/08/23 02:43:52;;;;;;;3.20;2.28;;;22.40;84.80;;;;;;5072904;28;20074;-77
2022/08/23 02:46:20;;;;;;;4.05;2.35;;;22.40;85.20;;;;;;5070513;28;20504;-78
2022/08/23 02:48:46;;;;;;;2.97;2.00;;;22.40;85.20;;;;;;5073393;28;20043;-77
2022/08/23 02:51:11;;;;;;;2.92;2.20;;;22.40;85.40;;;;;;5073344;28;20029;-78
2022/08/23 02:53:37;;;;;;;4.00;2.25;;;22.30;85.40;;;;;;5069795;28;20500;-78
2022/08/23 02:56:03;;;;;;;4.18;2.25;;;22.30;85.30;;;;;;5069519;28;20512;-78
2022/08/23 02:58:29;;;;;;;2.78;2.28;;;22.30;85.40;;;;;;5061790;28;20117;-78
2022/08/23 03:00:55;;;;;;;4.00;2.60;;;22.30;85.50;;;;;;5066918;28;20493;-77
2022/08/23 03:03:20;;;;;;;2.72;2.10;;;22.30;85.50;;;;;;5058920;28;20033;-78
2022/08/23 03:05:46;;;;;;;3.72;2.28;;;22.30;85.50;;;;;;5065941;28;20430;-78
2022/08/23 03:08:13;;;;;;;3.75;2.25;;;22.40;85.60;;;;;;5066059;28;20039;-77
2022/08/23 03:10:44;;;;;;;2.95;2.20;;;22.30;85.50;;;;;;5068611;28;20029;-78
2022/08/23 03:13:10;;;;;;;2.22;1.80;;;22.40;85.70;;;;;;5070555;28;20059;-78
2022/08/23 03:15:36;;;;;;;4.00;2.28;;;22.40;85.60;;;;;;5061510;28;20025;-77
2022/08/23 03:18:02;;;;;;;3.35;2.13;;;22.40;85.50;;;;;;5072604;28;20020;-78
2022/08/23 03:20:27;;;;;;;3.40;2.20;;;22.40;85.40;;;;;;5069184;28;20024;-77
2022/08/23 03:22:53;;;;;;;3.08;2.08;;;22.40;85.40;;;;;;5063502;28;20077;-78
2022/08/23 03:25:18;;;;;;;3.50;2.15;;;22.40;85.50;;;;;;5065678;28;20481;-78
2022/08/23 03:27:44;;;;;;;3.65;2.10;;;22.40;85.50;;;;;;5070054;28;20028;-78
2022/08/23 03:30:10;;;;;;;2.80;2.10;;;22.40;85.50;;;;;;5069482;28;20033;-78
2022/08/23 03:32:36;;;;;;;2.80;2.15;;;22.30;85.40;;;;;;5068195;28;20044;-78
2022/08/23 03:35:03;;;;;;;3.28;2.20;;;22.40;85.70;;;;;;5071837;28;20047;-78
2022/08/23 03:37:28;;;;;;;3.67;2.30;;;22.30;85.70;;;;;;5071024;28;20025;-77
2022/08/23 03:39:53;;;;;;;2.17;1.80;;;22.30;85.70;;;;;;5066575;28;20504;-78
2022/08/23 03:42:19;;;;;;;5.20;2.17;;;22.30;85.70;;;;;;5059430;28;20040;-78
2022/08/23 03:44:45;;;;;;;3.53;2.28;;;22.30;85.80;;;;;;5069361;28;20396;-78
2022/08/23 03:47:11;;;;;;;3.75;2.20;;;22.30;85.80;;;;;;5069045;28;20032;-78
2022/08/23 03:49:37;;;;;;;2.22;1.90;;;22.30;85.80;;;;;;5071031;28;20023;-78
2022/08/23 03:52:04;;;;;;;3.63;2.30;;;22.30;85.90;;;;;;5069592;28;20029;-78
2022/08/23 03:54:30;;;;;;;3.00;2.10;;;22.30;85.90;;;;;;5062733;28;20521;-77
2022/08/23 03:57:02;;;;;;;3.40;2.10;;;22.30;85.70;;;;;;5070270;28;20033;-78
2022/08/23 03:59:29;;;;;;;3.13;2.30;;;22.30;85.80;;;;;;5069116;28;20027;-78
2022/08/23 04:01:55;;;;;;;3.58;2.33;;;22.30;85.90;;;;;;5058497;28;20021;-77
2022/08/23 04:04:21;;;;;;;3.05;2.15;;;22.40;85.80;;;;;;5070689;28;20024;-77
2022/08/23 04:06:46;;;;;;;2.72;2.08;;;22.40;85.70;;;;;;5070321;28;20029;-78
2022/08/23 04:09:13;;;;;;;2.70;2.00;;;22.40;85.60;;;;;;5076495;28;20052;-78
2022/08/23 04:11:39;;;;;;;2.97;2.10;;;22.40;85.60;;;;;;5062671;28;20083;-78
2022/08/23 04:14:05;;;;;;;2.65;1.80;;;22.40;85.70;;;;;;5063999;28;20099;-77
2022/08/23 04:16:36;;;;;;;3.03;2.03;;;22.40;86.00;;;;;;5064797;28;20393;-78
2022/08/23 04:19:03;;;;;;;2.67;2.00;;;22.40;85.60;;;;;;5070260;28;20469;-76
2022/08/23 04:21:29;;;;;;;3.38;2.25;;;22.30;85.80;;;;;;5059765;28;20109;-77
2022/08/23 04:23:55;;;;;;;3.08;2.20;;;22.30;85.90;;;;;;5069250;28;20071;-78
2022/08/23 04:26:20;;;;;;;3.38;2.22;;;22.30;85.90;;;;;;5064264;28;20024;-78
2022/08/23 04:28:46;;;;;;;2.58;2.00;;;22.30;85.90;;;;;;5069233;28;20029;-77
2022/08/23 04:31:11;;;;;;;2.70;2.00;;;22.30;85.90;;;;;;5069786;28;20032;-78
2022/08/23 04:33:37;;;;;;;3.03;2.20;;;22.30;86.00;;;;;;5063579;28;20031;-78
2022/08/23 04:36:03;;;;;;;3.17;2.05;;;22.20;86.00;;;;;;5069186;28;20052;-78
2022/08/23 04:38:29;;;;;;;4.05;2.30;;;22.30;86.00;;;;;;5062860;28;20107;-78
2022/08/23 04:43:39;;;;;;;2.88;2.17;;;22.30;86.10;;;;;;5065611;28;20038;-78
2022/08/23 04:46:06;;;;;;;3.13;2.28;;;22.30;86.00;;;;;;5068108;28;20029;-78
2022/08/23 04:48:32;;;;;;;2.90;2.00;;;22.30;86.00;;;;;;5067433;28;20525;-78
2022/08/23 04:50:57;;;;;;;3.53;2.13;;;22.30;86.00;;;;;;5068389;28;20028;-79
2022/08/23 04:53:24;;;;;;;3.88;2.35;;;22.30;85.90;;;;;;5067275;28;20404;-78
2022/08/23 04:55:51;;;;;;;3.05;2.20;;;22.40;85.90;;;;;;5070244;28;20021;-79
2022/08/23 04:58:17;;;;;;;3.10;2.15;;;22.40;85.80;;;;;;5071483;28;20052;-79
2022/08/23 05:00:42;;;;;;;4.32;2.40;;;22.30;85.80;;;;;;5065555;28;20065;-80
2022/08/23 05:03:08;;;;;;;3.03;2.00;;;22.30;85.90;;;;;;5066307;28;20037;-79
2022/08/23 05:05:34;;;;;;;2.75;2.10;;;22.30;85.90;;;;;;5070072;28;20024;-79
2022/08/23 05:07:59;;;;;;;3.35;2.33;;;22.30;86.00;;;;;;5066138;28;20078;-79
2022/08/23 05:10:25;;;;;;;3.58;2.38;;;22.30;86.00;;;;;;5071077;28;20036;-79
2022/08/23 05:12:50;;;;;;;3.03;2.25;;;22.30;86.00;;;;;;5065762;28;20028;-79
2022/08/23 05:15:16;;;;;;;3.53;2.40;;;22.30;86.10;;;;;;5064896;28;20033;-79
2022/08/23 05:17:41;;;;;;;2.78;2.10;;;22.30;86.10;;;;;;5066372;28;20021;-80
2022/08/23 05:20:09;;;;;;;3.60;2.33;;;22.30;86.10;;;;;;5070049;28;20036;-79
2022/08/23 05:22:36;;;;;;;2.55;2.00;;;22.30;86.10;;;;;;5068895;28;20112;-79
2022/08/23 05:25:03;;;;;;;3.15;2.10;;;22.30;86.10;;;;;;5059092;28;20027;-79
2022/08/23 05:27:29;;;;;;;2.95;2.03;;;22.30;86.00;;;;;;5088649;28;20436;-78
2022/08/23 05:29:54;;;;;;;2.80;2.00;;;22.30;86.20;;;;;;5057930;28;20091;-79
2022/08/23 05:32:21;;;;;;;3.88;2.10;;;22.30;86.10;;;;;;5069834;28;20051;-79
2022/08/23 05:34:47;;;;;;;2.67;2.10;;;22.30;86.00;;;;;;5060070;28;20024;-79
2022/08/23 05:37:13;;;;;;;3.63;2.13;;;22.30;85.90;;;;;;5071003;28;20532;-79
2022/08/23 05:39:38;;;;;;;2.90;2.20;;;22.40;85.70;;;;;;5070548;28;20029;-79
2022/08/23 05:42:06;;;;;;;3.88;2.20;;;22.40;85.50;;;;;;5073562;28;20032;-79
2022/08/23 05:44:32;;;;;;;4.13;2.20;;;22.40;85.30;;;;;;5071017;28;20111;-79
2022/08/23 05:46:58;;;;;;;2.85;2.10;;;22.40;85.20;;;;;;5086879;28;20522;-79
2022/08/23 05:49:23;;;;;;;3.42;2.08;;;22.40;85.20;;;;;;5070836;28;20048;-79
2022/08/23 05:51:49;;;;;;;2.45;1.98;;;22.40;85.20;;;;;;5072528;28;20020;-79
2022/08/23 05:54:15;;;;;;;3.63;2.20;;;22.40;85.20;;;;;;5072256;28;20032;-79
2022/08/23 05:56:42;;;;;;;3.83;2.28;;;22.40;85.20;;;;;;5072921;28;20104;-80
2022/08/23 05:59:12;;;;;;;3.53;2.22;;;22.40;85.20;;;;;;5072275;28;20025;-80
2022/08/23 06:01:38;;;;;;;3.05;1.98;;;22.40;85.20;;;;;;5072311;28;20025;-79
2022/08/23 06:04:10;;;;;;;3.53;2.10;;;22.40;85.20;;;;;;5072281;28;20023;-79
2022/08/23 06:06:35;;;;;;;;;;;22.40;85.10;;;;;;5073571;28;20028;-79
2022/08/23 06:09:04;;;;;;;3.17;2.10;;;22.40;85.10;;;;;;5071985;28;20382;-79
2022/08/23 06:11:30;;;;;;;3.50;2.30;;;22.40;85.10;;;;;;5071604;28;20511;-79
2022/08/23 06:13:58;;;;;;;3.17;2.30;;;22.50;85.10;;;;;;5072580;28;20020;-79
2022/08/23 06:16:27;;;;;;;3.10;2.20;;;22.40;85.00;;;;;;5072372;28;20029;-79
2022/08/23 06:18:54;;;;;;;3.22;2.20;;;22.50;84.90;;;;;;5092576;28;20027;-80
2022/08/23 06:21:20;;;;;;;3.45;2.38;;;22.50;84.90;;;;;;5075438;28;20056;-80
2022/08/23 06:23:48;;;;;;;3.40;2.20;;;22.60;84.70;;;;;;5072462;28;20051;-80
2022/08/23 06:26:17;;;;;;;2.97;2.20;;;22.60;84.50;;;;;;5076737;28;20500;-79
2022/08/23 06:28:45;;;;;;;3.20;2.10;;;22.60;84.40;;;;;;5077755;28;20032;-80
2022/08/23 06:31:11;;;;;;;3.33;2.15;;;22.60;84.30;;;;;;5080762;28;20020;-80
2022/08/23 06:33:37;;;;;;;3.15;2.15;;;22.60;84.20;;;;;;5097074;28;20169;-79
2022/08/23 06:36:09;;;;;;;2.90;2.17;;;22.80;84.20;;;;;;5096078;28;20145;-79
2022/08/23 06:38:35;;;;;;;3.10;2.20;;;22.60;84.20;;;;;;5113173;28;20469;-80
2022/08/23 06:41:06;;;;;;;2.72;2.10;;;22.60;84.10;;;;;;5098369;28;20028;-80
2022/08/23 06:43:32;;;;;;;3.08;2.05;;;22.60;84.10;;;;;;5096824;28;20400;-79
2022/08/23 06:46:16;;;;;;;3.40;2.20;;;22.60;84.60;;;;;;5096969;28;20024;-78
2022/08/23 06:48:43;;;;;;;3.58;2.08;;;22.70;84.00;;;;;;5095999;28;20588;-79
2022/08/23 06:51:24;;;;;;;3.83;2.30;;;22.70;83.90;;;;;;5095031;28;20032;-79
2022/08/23 06:53:54;;;;;;;3.85;2.28;;;22.70;83.90;;;;;;5097802;28;20035;-79
2022/08/23 06:56:21;;;;;;;5.05;2.10;;;22.70;83.60;;;;;;5098451;28;20055;-79
2022/08/23 06:58:47;;;;;;;5.13;2.30;;;22.70;84.00;;;;;;5103350;28;20031;-77
2022/08/23 07:01:22;;;;;;;4.03;2.40;;;22.70;83.10;;;;;;5099979;28;20412;-78
2022/08/23 07:03:54;;;;;;;4.78;2.50;;;22.80;83.30;;;;;;5096861;28;20028;-79
2022/08/23 07:06:21;;;;;;;;;;;22.80;83.30;;;;;;5097144;28;20019;-79
2022/08/23 07:08:46;;;;;;;3.70;2.40;;;22.80;83.20;;;;;;5095066;28;19986;-78
2022/08/23 07:11:11;;;;;;;3.50;2.40;;;22.80;83.00;;;;;;5094304;28;20039;-79
2022/08/23 07:13:37;;;;;;;3.63;2.40;;;22.90;82.80;;;;;;5094243;28;20020;-79
2022/08/23 07:16:03;;;;;;;3.90;2.30;;;22.90;82.60;;;;;;5094953;28;20101;-79
2022/08/23 07:18:29;;;;;;;4.65;2.30;;;23.00;82.50;;;;;;5095743;28;20020;-79
2022/08/23 07:20:59;;;;;;;3.63;2.05;;;23.00;82.50;;;;;;5111210;28;20024;-79
2022/08/23 07:23:26;;;;;;;3.03;2.10;;;23.00;82.40;;;;;;5095493;28;20028;-79
2022/08/23 07:25:52;;;;;;;4.10;2.50;;;23.00;82.40;;;;;;5094823;28;20810;-79
2022/08/23 07:28:18;;;;;;;3.72;2.17;;;23.00;82.30;;;;;;5094515;28;20024;-79
2022/08/23 07:30:45;;;;;;;4.28;2.42;;;23.00;82.20;;;;;;5095300;28;20692;-79
2022/08/23 07:33:10;;;;;;;3.30;2.25;;;23.00;82.20;;;;;;5094361;28;20049;-79
2022/08/23 07:35:36;;;;;;;3.25;2.30;;;23.10;82.40;;;;;;5095569;28;20028;-80
2022/08/23 07:38:02;;;;;;;3.38;2.17;;;23.00;82.10;;;;;;5095314;28;20392;-79
2022/08/23 07:40:27;;;;;;;3.70;2.10;;;23.00;82.10;;;;;;5094984;28;20081;-79
2022/08/23 07:42:56;;;;;;;4.10;2.53;;;23.10;82.00;;;;;;5092799;28;20024;-79
2022/08/23 07:45:22;;;;;;;3.13;2.30;;;23.10;81.90;;;;;;5094219;28;20028;-79
2022/08/23 07:47:47;;;;;;;4.10;2.30;;;23.10;81.90;;;;;;5094851;28;20093;-79
2022/08/23 07:50:13;;;;;;;3.75;2.40;;;23.10;81.80;;;;;;5094110;28;20574;-79
2022/08/23 07:52:38;;;;;;;4.25;2.30;;;23.20;82.00;;;;;;5094334;28;20039;-79
2022/08/23 07:55:04;;;;;;;3.95;2.40;;;23.20;81.80;;;;;;5093703;28;20106;-79
2022/08/23 07:57:30;;;;;;;4.60;2.75;;;23.30;81.60;;;;;;5093389;28;20457;-79
2022/08/23 07:59:55;;;;;;;3.95;2.58;;;23.30;81.50;;;;;;5093156;28;20520;-79
2022/08/23 08:02:21;;;;;;;3.80;2.88;;;23.30;81.30;;;;;;5093480;28;20027;-79
2022/08/23 08:04:46;;;;;;;4.45;2.80;;;23.40;81.00;;;;;;5093962;28;20484;-79
2022/08/23 08:07:12;;;;;;;4.93;2.90;;;23.40;81.00;;;;;;5093268;28;20035;-78
2022/08/23 08:09:38;;;;;;;4.72;2.80;;;23.40;80.90;;;;;;5093427;28;20072;-79
2022/08/23 08:12:03;;;;;;;4.25;2.85;;;23.30;80.80;;;;;;5093005;28;20028;-79
2022/08/23 08:14:29;;;;;;;4.43;3.00;;;23.40;81.00;;;;;;5093118;28;20030;-78
2022/08/23 08:16:57;;;;;;;4.55;3.00;;;23.40;80.80;;;;;;5110442;28;20031;-78
2022/08/23 08:19:22;;;;;;;4.07;3.03;;;23.40;80.70;;;;;;5092834;28;20032;-79
2022/08/23 08:21:48;;;;;;;4.57;2.88;;;23.40;81.00;;;;;;5093417;28;20039;-79
2022/08/23 08:24:15;;;;;;;4.70;3.00;;;23.40;80.70;;;;;;5093080;28;20024;-79
2022/08/23 08:26:42;;;;;;;4.13;3.03;;;23.40;80.80;;;;;;5093072;28;20024;-79
2022/08/23 08:29:11;;;;;;;4.28;3.17;;;23.40;80.70;;;;;;5092883;28;20426;-79
2022/08/23 08:31:39;;;;;;;4.28;3.22;;;23.40;80.80;;;;;;5094364;28;20020;-79
2022/08/23 08:34:06;;;;;;;5.25;3.53;;;23.50;80.90;;;;;;5109671;28;20118;-79
2022/08/23 08:36:44;;;;;;;3.85;3.10;;;23.40;80.90;;;;;;5092742;28;20020;-79
2022/08/23 08:39:17;;;;;;;6.10;3.53;;;23.40;81.20;;;;;;5092361;28;20035;-79
2022/08/23 08:41:51;;;;;;;4.45;3.50;;;23.40;81.20;;;;;;5094281;28;20024;-79
2022/08/23 08:44:36;;;;;;;4.10;3.05;;;23.40;81.00;;;;;;5092851;28;20024;-79
2022/08/23 08:47:13;;;;;;;4.30;3.28;;;23.50;81.60;;;;;;5095312;28;20024;-79
2022/08/23 08:50:08;;;;;;;5.43;3.70;;;23.60;80.90;;;;;;5093260;28;20028;-79
2022/08/23 08:52:42;;;;;;;4.40;3.03;;;23.60;80.70;;;;;;5092715;28;20050;-79
2022/08/23 08:55:12;;;;;;;4.72;3.28;;;23.60;80.40;;;;;;5094914;28;20103;-79
2022/08/23 08:57:41;;;;;;;5.85;3.30;;;23.60;80.70;;;;;;5093074;28;20020;-79
2022/08/23 09:00:12;;;;;;;4.75;3.28;;;23.60;80.40;;;;;;5093220;28;20040;-79
2022/08/23 09:02:38;;;;;;;5.38;3.20;;;23.60;80.60;;;;;;5093797;28;20459;-79
2022/08/23 09:05:11;;;;;;;5.10;3.33;;;23.60;80.70;;;;;;5092912;28;20024;-79
2022/08/23 09:08:08;;;;;;;4.63;3.22;;;23.50;80.90;;;;;;5092690;28;20118;-79
2022/08/23 09:10:55;;;;;;;4.80;3.25;;;23.50;81.00;;;;;;5092355;28;20028;-79
2022/08/23 09:13:39;;;;;;;4.53;3.10;;;23.50;81.20;;;;;;5094454;28;20020;-79
2022/08/23 09:16:15;;;;;;;3.80;3.00;;;23.50;81.10;;;;;;5094244;28;20424;-79
2022/08/23 09:18:41;;;;;;;4.80;3.20;;;23.60;81.20;;;;;;5093288;28;20016;-80
2022/08/23 09:21:08;;;;;;;4.35;2.95;;;23.60;81.20;;;;;;5110144;28;20020;-79
2022/08/23 09:23:46;;;;;;;4.07;3.00;;;23.60;81.10;;;;;;5093245;28;20035;-79
2022/08/23 09:26:26;;;;;;;4.15;3.30;;;23.60;81.10;;;;;;5092834;28;20062;-79
2022/08/23 09:28:59;;;;;;;4.63;3.50;;;23.70;81.00;;;;;;5092232;28;20042;-79
2022/08/23 09:31:40;;;;;;;4.18;3.20;;;23.70;80.90;;;;;;5092420;28;20039;-79
2022/08/23 09:34:06;;;;;;;5.10;3.38;;;23.80;80.70;;;;;;5093414;28;20081;-79
2022/08/23 09:36:35;;;;;;;4.28;2.88;;;23.80;80.50;;;;;;5094075;28;20056;-79
2022/08/23 09:39:05;;;;;;;4.97;3.33;;;23.80;80.40;;;;;;5082015;28;20025;-79
2022/08/23 09:41:35;;;;;;;4.70;3.30;;;23.80;80.40;;;;;;5072765;28;20028;-79
2022/08/23 09:44:02;;;;;;;4.07;3.00;;;23.80;80.40;;;;;;5070997;28;20029;-78
2022/08/23 09:46:31;;;;;;;4.90;3.38;;;23.80;80.60;;;;;;5073291;28;20037;-79
2022/08/23 09:48:59;;;;;;;5.00;3.50;;;23.80;80.60;;;;;;5072166;28;20039;-79
2022/08/23 09:51:32;;;;;;;4.28;3.20;;;23.90;80.70;;;;;;5073364;28;20036;-79
2022/08/23 09:54:10;;;;;;;4.03;3.00;;;23.80;80.70;;;;;;5075575;28;20504;-78
2022/08/23 09:56:43;;;;;;;4.35;3.20;;;23.80;80.70;;;;;;5076969;28;20392;-80
2022/08/23 09:59:30;;;;;;;5.07;3.13;;;23.80;80.70;;;;;;5076508;28;20043;-78
2022/08/23 10:01:57;;;;;;;3.70;2.80;;;23.80;80.80;;;;;;5077167;28;20029;-79
2022/08/23 10:04:37;;;;;;;4.43;3.10;;;23.70;80.70;;;;;;5077828;28;20032;-79
2022/08/23 10:07:28;;;;;;;4.07;2.97;;;23.80;80.70;;;;;;5077585;28;20107;-79
2022/08/23 10:10:11;;;;;;;4.28;3.13;;;23.80;80.70;;;;;;5087289;28;20029;-79
2022/08/23 10:12:37;;;;;;;4.65;3.35;;;23.90;80.70;;;;;;5075590;28;20111;-78
2022/08/23 10:15:03;;;;;;;3.85;2.88;;;23.90;80.70;;;;;;5076704;28;20552;-79
2022/08/23 10:17:36;;;;;;;4.10;2.80;;;23.90;80.50;;;;;;5078689;28;20549;-79
2022/08/23 10:20:34;;;;;;;3.65;2.78;;;24.00;80.50;;;;;;5075083;28;20088;-79
2022/08/23 10:23:27;;;;;;;3.22;2.55;;;24.00;80.30;;;;;;5076441;28;20024;-79
2022/08/23 10:26:00;;;;;;;4.28;2.60;;;24.00;80.10;;;;;;5076328;28;20029;-79
2022/08/23 10:31:53;;;;;;;3.47;2.50;;;24.00;80.20;;;;;;5076809;28;20042;-79
2022/08/23 10:34:27;;;;;;;4.30;3.03;;;24.00;80.30;;;;;;5076494;28;20052;-80
2022/08/23 10:37:32;;;;;;;4.13;2.65;;;24.00;80.80;;;;;;5074856;28;20070;-79
2022/08/23 10:40:12;;;;;;;3.80;2.80;;;24.00;80.40;;;;;;5075362;28;20553;-79
2022/08/23 10:42:49;;;;;;;3.92;2.92;;;23.90;80.50;;;;;;5075965;28;20033;-79
2022/08/23 10:45:26;;;;;;;2.55;2.30;;;23.90;80.50;;;;;;5075506;28;20054;-78
2022/08/23 10:48:05;;;;;;;4.25;2.70;;;23.90;80.60;;;;;;5074217;28;20028;-79
2022/08/23 10:51:05;;;;;;;3.53;2.80;;;23.90;80.70;;;;;;5075206;28;20089;-79
2022/08/23 10:53:48;;;;;;;3.58;2.80;;;23.80;80.60;;;;;;5075401;28;20040;-79
2022/08/23 10:56:20;;;;;;;3.58;2.53;;;23.80;80.80;;;;;;5074091;28;20035;-79
2022/08/23 10:58:52;;;;;;;3.95;2.60;;;23.80;80.90;;;;;;5075442;28;20112;-79
2022/08/23 11:01:19;;;;;;;;;;;23.80;80.90;;;;;;5075430;28;20092;-77
2022/08/23 11:04:07;;;;;;;3.78;2.60;;;23.80;80.70;;;;;;5075066;28;19914;-79
2022/08/23 11:06:36;;;;;;;3.42;2.60;;;23.90;80.60;;;;;;5075205;28;20174;-79
2022/08/23 11:09:01;;;;;;;3.97;2.67;;;23.90;80.60;;;;;;5073686;28;20032;-79
2022/08/23 11:11:48;;;;;;;3.85;2.85;;;24.00;80.50;;;;;;5075337;28;20032;-79
2022/08/23 11:14:36;;;;;;;4.85;2.88;;;24.00;80.50;;;;;;5074990;28;20075;-79
2022/08/23 11:17:11;;;;;;;4.10;2.65;;;24.00;80.40;;;;;;5073377;28;20158;-79
2022/08/23 11:19:55;;;;;;;3.03;2.50;;;23.90;80.50;;;;;;5074262;28;20508;-79
2022/08/23 11:22:28;;;;;;;3.58;2.78;;;23.90;80.50;;;;;;5074606;28;20028;-79
2022/08/23 11:25:03;;;;;;;4.45;2.90;;;23.90;80.50;;;;;;5075909;28;20031;-78
2022/08/23 11:27:39;;;;;;;3.60;2.63;;;23.90;80.60;;;;;;5077033;28;20109;-80
2022/08/23 11:30:48;;;;;;;3.60;2.70;;;23.90;80.80;;;;;;5076081;28;20064;-79
2022/08/23 11:33:23;;;;;;;2.90;2.40;;;23.90;80.80;;;;;;5036454;28;20028;-79
2022/08/23 11:36:15;;;;;;;3.55;2.67;;;23.90;80.70;;;;;;5073558;28;20033;-79
2022/08/23 11:38:46;;;;;;;3.80;2.55;;;23.80;80.80;;;;;;5075527;28;20017;-78
2022/08/23 11:41:23;;;;;;;3.33;2.50;;;23.90;80.90;;;;;;5075189;28;20025;-79
2022/08/23 11:43:54;;;;;;;3.58;2.75;;;23.90;80.90;;;;;;5073740;28;20125;-78
2022/08/23 11:46:30;;;;;;;3.33;2.60;;;23.90;80.90;;;;;;5075226;28;20067;-79
2022/08/23 11:49:22;;;;;;;3.58;2.60;;;23.90;80.90;;;;;;5076131;28;20051;-79
2022/08/23 11:52:16;;;;;;;3.45;2.67;;;23.90;80.80;;;;;;5075169;28;20452;-79
2022/08/23 11:55:16;;;;;;;3.40;2.50;;;23.90;80.70;;;;;;5074504;28;20024;-79
2022/08/23 11:58:12;;;;;;;3.53;2.45;;;23.90;80.60;;;;;;5075374;28;20047;-79
2022/08/23 12:01:05;;;;;;;2.72;2.28;;;23.90;80.50;;;;;;5075535;28;20027;-79
2022/08/23 12:03:54;;;;;;;3.58;2.63;;;23.90;80.60;;;;;;5075363;28;20086;-78
2022/08/23 12:06:37;;;;;;;3.25;2.35;;;23.90;80.80;;;;;;5073722;28;20028;-78
2022/08/23 12:09:10;;;;;;;3.72;2.40;;;23.80;80.90;;;;;;5074763;28;20020;-79
2022/08/23 12:11:54;;;;;;;3.50;2.60;;;23.80;81.00;;;;;;5075189;28;20027;-78
2022/08/23 12:14:41;;;;;;;3.55;2.70;;;23.80;80.90;;;;;;5073634;28;20043;-78
2022/08/23 12:17:17;;;;;;;4.05;2.80;;;23.80;81.20;;;;;;5074679;28;20397;-79
2022/08/23 12:19:52;;;;;;;4.25;2.42;;;23.80;81.20;;;;;;5072712;28;20453;-78
2022/08/23 12:22:21;;;;;;;3.55;2.50;;;23.70;81.20;;;;;;5073217;28;20024;-78
2022/08/23 12:24:53;;;;;;;3.30;2.40;;;23.80;81.40;;;;;;5073079;28;20035;-79
2022/08/23 12:27:36;;;;;;;4.00;2.55;;;23.70;81.40;;;;;;5074101;28;20024;-78
2022/08/23 12:30:10;;;;;;;3.15;2.30;;;23.70;81.40;;;;;;5072428;28;20024;-79
2022/08/23 12:32:48;;;;;;;4.30;2.80;;;23.80;81.50;;;;;;5074338;28;20056;-78
2022/08/23 12:35:48;;;;;;;3.40;2.60;;;23.70;81.40;;;;;;5073853;28;20113;-79
2022/08/23 12:38:47;;;;;;;3.13;2.30;;;23.80;81.30;;;;;;5073375;28;20028;-78
2022/08/23 12:41:23;;;;;;;3.33;2.50;;;23.80;81.20;;;;;;5072041;28;20511;-78
2022/08/23 12:44:09;;;;;;;3.38;2.22;;;23.80;81.00;;;;;;5073689;28;20028;-79
2022/08/23 12:46:38;;;;;;;2.95;2.30;;;23.80;81.00;;;;;;5073561;28;20035;-79
2022/08/23 12:49:07;;;;;;;4.35;2.60;;;23.80;81.10;;;;;;5071228;28;20055;-79
2022/08/23 12:51:39;;;;;;;2.92;2.20;;;23.80;81.20;;;;;;5072129;28;20035;-79
2022/08/23 12:54:14;;;;;;;3.35;2.40;;;23.80;81.30;;;;;;5071680;28;20032;-79
2022/08/23 12:56:45;;;;;;;3.42;2.45;;;23.70;81.30;;;;;;5072099;28;20021;-78
2022/08/23 12:59:33;;;;;;;3.05;2.28;;;23.70;81.40;;;;;;5071421;28;20412;-78
2022/08/23 13:02:09;;;;;;;3.70;2.60;;;23.70;81.50;;;;;;5073961;28;20142;-79
2022/08/23 13:04:37;;;;;;;3.08;2.40;;;23.70;81.70;;;;;;5074939;28;20370;-79
2022/08/23 13:07:07;;;;;;;3.60;2.58;;;23.60;81.80;;;;;;5069794;28;20527;-79
2022/08/23 13:09:36;;;;;;;3.72;2.58;;;23.60;81.80;;;;;;5070033;28;20495;-79
2022/08/23 13:12:05;;;;;;;3.28;2.30;;;23.60;81.90;;;;;;5067292;28;20040;-79
2022/08/23 13:14:30;;;;;;;3.58;2.53;;;23.60;81.90;;;;;;5073347;28;20039;-79
2022/08/23 13:16:58;;;;;;;3.15;2.40;;;23.60;82.10;;;;;;5072377;28;20440;-79
2022/08/23 13:19:27;;;;;;;3.22;2.42;;;23.60;82.20;;;;;;5077175;28;20039;-79